createdAt,value
2023-04-06T00:01:36.768Z,96888.00
2023-04-06T00:04:04.639Z,96890.16
2023-04-06T00:06:32.823Z,96886.06
2023-04-06T00:09:00.726Z,96878.44
2023-04-06T00:11:28.486Z,96877.38
2023-04-06T00:13:57.630Z,96878.78
2023-04-06T00:16:26.537Z,96875.13
2023-04-06T00:18:55.730Z,96873.16
2023-04-06T00:21:23.528Z,96872.06
2023-04-06T00:23:51.181Z,96864.78
2023-04-06T00:26:18.830Z,96868.88
2023-04-06T00:28:46.481Z,96868.19
2023-04-06T00:31:15.637Z,96865.75
2023-04-06T00:33:43.343Z,96867.72
2023-04-06T00:36:11.276Z,96869.06
2023-04-06T00:38:38.940Z,96871.16
2023-04-06T00:41:06.729Z,96865.47
2023-04-06T00:43:34.454Z,96866.41
2023-04-06T00:46:02.202Z,96858.78
2023-04-06T00:48:32.263Z,96860.81
2023-04-06T00:51:00.313Z,96857.44
2023-04-06T00:53:27.922Z,96864.19
2023-04-06T00:56:27.163Z,96862.91
2023-04-06T00:58:54.978Z,96854.81
2023-04-06T01:01:22.586Z,96854.00
2023-04-06T01:03:51.303Z,96850.19
2023-04-06T01:06:18.980Z,96852.41
2023-04-06T01:08:46.898Z,96848.22
2023-04-06T01:11:14.857Z,96851.03
2023-04-06T01:13:43.869Z,96847.88
2023-04-06T01:16:11.767Z,96848.69
2023-04-06T01:18:40.621Z,96837.34
2023-04-06T01:21:09.678Z,96844.25
2023-04-06T01:23:38.651Z,96843.69
2023-04-06T01:26:06.436Z,96842.16
2023-04-06T01:28:34.090Z,96840.78
2023-04-06T01:31:01.989Z,96835.63
2023-04-06T01:33:29.791Z,96831.53
2023-04-06T01:35:57.716Z,96829.34
2023-04-06T01:38:25.502Z,96827.03
2023-04-06T01:40:54.609Z,96822.94
2023-04-06T01:43:22.435Z,96817.91
2023-04-06T01:45:49.990Z,96812.19
2023-04-06T01:48:17.705Z,96821.94
2023-04-06T01:50:45.611Z,96815.41
2023-04-06T01:53:13.471Z,96816.56
2023-04-06T01:55:41.073Z,96808.28
2023-04-06T01:58:10.623Z,96807.84
2023-04-06T02:00:38.235Z,96812.53
2023-04-06T02:03:06.241Z,96816.28
2023-04-06T02:05:38.703Z,96813.25
2023-04-06T02:08:06.823Z,96811.75
2023-04-06T02:10:34.764Z,96811.03
2023-04-06T02:13:02.790Z,96810.34
2023-04-06T02:15:31.716Z,96809.63
2023-04-06T02:17:59.520Z,96810.59
2023-04-06T02:20:27.123Z,96807.78
2023-04-06T02:22:54.652Z,96801.72
2023-04-06T02:25:22.271Z,96798.53
2023-04-06T02:27:49.773Z,96802.19
2023-04-06T02:30:17.290Z,96796.22
2023-04-06T02:32:46.206Z,96801.59
2023-04-06T02:35:13.975Z,96796.81
2023-04-06T02:37:41.508Z,96793.81
2023-04-06T02:40:10.495Z,96789.84
2023-04-06T02:42:38.007Z,96793.56
2023-04-06T02:45:06.630Z,96793.13
2023-04-06T02:47:34.847Z,96794.28
2023-04-06T02:50:03.954Z,96791.03
2023-04-06T02:52:31.464Z,96790.06
2023-04-06T02:54:59.063Z,96784.03
2023-04-06T02:57:26.588Z,96786.81
2023-04-06T02:59:54.100Z,96787.50
2023-04-06T03:02:21.758Z,96789.16
2023-04-06T03:04:49.319Z,96789.84
2023-04-06T03:07:18.208Z,96785.53
2023-04-06T03:09:46.234Z,96784.72
2023-04-06T03:12:13.754Z,96783.91
2023-04-06T03:14:41.312Z,96788.22
2023-04-06T03:17:08.819Z,96784.72
2023-04-06T03:19:36.372Z,96784.59
2023-04-06T03:22:04.041Z,96785.16
2023-04-06T03:24:32.925Z,96786.81
2023-04-06T03:27:01.181Z,96782.38
2023-04-06T03:29:29.019Z,96786.47
2023-04-06T03:31:56.578Z,96787.50
2023-04-06T03:34:24.073Z,96784.25
2023-04-06T03:37:02.898Z,96789.59
2023-04-06T03:39:38.032Z,96796.63
2023-04-06T03:42:05.838Z,96803.78
2023-04-06T03:44:33.747Z,96800.59
2023-04-06T03:47:01.875Z,96801.88
2023-04-06T03:49:29.387Z,96802.94
2023-04-06T03:51:58.282Z,96805.75
2023-04-06T03:54:25.921Z,96806.47
2023-04-06T03:56:54.779Z,96809.47
2023-04-06T03:59:22.397Z,96809.00
2023-04-06T04:01:49.999Z,96807.84
2023-04-06T04:04:17.507Z,96812.63
2023-04-06T04:06:45.078Z,96810.88
2023-04-06T04:09:12.679Z,96813.69
2023-04-06T04:11:40.334Z,96810.41
2023-04-06T04:14:09.162Z,96807.84
2023-04-06T04:16:36.731Z,96807.38
2023-04-06T04:19:04.353Z,96812.50
2023-04-06T04:21:32.280Z,96806.19
2023-04-06T04:23:59.953Z,96815.31
2023-04-06T04:26:27.722Z,96817.41
2023-04-06T04:28:55.215Z,96823.84
2023-04-06T04:31:24.325Z,96816.81
2023-04-06T04:33:51.920Z,96818.69
2023-04-06T04:36:19.455Z,96821.50
2023-04-06T04:38:46.982Z,96813.22
2023-04-06T04:41:14.538Z,96808.56
2023-04-06T04:43:42.032Z,96806.91
2023-04-06T04:46:09.569Z,96818.25
2023-04-06T04:48:39.860Z,96820.47
2023-04-06T04:51:08.148Z,96820.22
2023-04-06T04:53:35.816Z,96823.50
2023-04-06T04:56:03.372Z,96820.69
2023-04-06T04:58:31.304Z,96823.75
2023-04-06T05:00:58.849Z,96829.91
2023-04-06T05:03:28.456Z,96835.28
2023-04-06T05:05:57.584Z,96837.25
2023-04-06T05:08:25.171Z,96836.44
2023-04-06T05:10:52.808Z,96840.44
2023-04-06T05:13:20.577Z,96838.66
2023-04-06T05:15:48.181Z,96841.47
2023-04-06T05:18:15.847Z,96850.69
2023-04-06T05:20:44.530Z,96852.47
2023-04-06T05:23:13.805Z,96851.50
2023-04-06T05:25:41.688Z,96850.34
2023-04-06T05:28:09.306Z,96855.94
2023-04-06T05:30:37.072Z,96855.75
2023-04-06T05:33:04.779Z,96849.78
2023-04-06T05:35:32.343Z,96856.78
2023-04-06T05:37:59.941Z,96855.13
2023-04-06T05:40:28.847Z,96853.28
2023-04-06T05:42:56.402Z,96862.50
2023-04-06T05:45:23.971Z,96856.19
2023-04-06T05:47:51.619Z,96862.84
2023-04-06T05:50:19.312Z,96863.19
2023-04-06T05:52:47.436Z,96868.00
2023-04-06T05:55:15.016Z,96865.81
2023-04-06T05:57:43.880Z,96869.53
2023-04-06T06:00:12.919Z,96869.97
2023-04-06T06:02:43.124Z,96868.72
2023-04-06T06:05:10.880Z,96870.81
2023-04-06T06:07:38.465Z,96860.72
2023-04-06T06:10:06.500Z,96865.84
2023-04-06T06:12:34.043Z,96870.16
2023-04-06T06:15:02.901Z,96867.59
2023-04-06T06:17:30.401Z,96872.81
2023-04-06T06:19:57.991Z,96872.06
2023-04-06T06:22:25.565Z,96868.91
2023-04-06T06:24:53.089Z,96865.69
2023-04-06T06:27:20.758Z,96867.66
2023-04-06T06:29:48.302Z,96870.41
2023-04-06T06:32:17.267Z,96871.31
2023-04-06T06:34:44.776Z,96871.41
2023-04-06T06:37:12.322Z,96865.63
2023-04-06T06:39:39.951Z,96869.88
2023-04-06T06:42:07.714Z,96872.28
2023-04-06T06:44:35.252Z,96867.84
2023-04-06T06:47:03.150Z,96869.28
2023-04-06T06:49:31.998Z,96873.28
2023-04-06T06:51:59.488Z,96875.63
2023-04-06T06:54:27.060Z,96876.22
2023-04-06T06:56:55.285Z,96885.22
2023-04-06T06:59:23.040Z,96873.59
2023-04-06T07:01:52.173Z,96885.16
2023-04-06T07:04:19.806Z,96881.22
2023-04-06T07:06:48.756Z,96879.88
2023-04-06T07:09:16.290Z,96889.66
2023-04-06T07:11:43.809Z,96877.97
2023-04-06T07:14:12.545Z,96876.44
2023-04-06T07:16:40.223Z,96875.75
2023-04-06T07:19:07.859Z,96880.31
2023-04-06T07:21:35.372Z,96875.88
2023-04-06T07:24:04.326Z,96878.56
2023-04-06T07:26:31.915Z,96884.31
2023-04-06T07:28:59.721Z,96874.81
2023-04-06T07:31:27.255Z,96879.09
2023-04-06T07:33:54.787Z,96880.22
2023-04-06T07:36:22.533Z,96881.97
2023-04-06T07:38:50.110Z,96874.06
2023-04-06T07:41:19.033Z,96882.47
2023-04-06T07:43:46.557Z,96875.28
2023-04-06T07:46:14.150Z,96880.09
2023-04-06T07:48:41.759Z,96882.81
2023-04-06T07:51:11.340Z,96880.13
2023-04-06T07:53:38.871Z,96882.81
2023-04-06T07:56:06.734Z,96883.84
2023-04-06T07:58:35.605Z,96885.38
2023-04-06T08:01:03.239Z,96882.03
2023-04-06T08:03:31.264Z,96876.13
2023-04-06T08:05:59.004Z,96879.41
2023-04-06T08:08:26.758Z,96880.41
2023-04-06T08:10:54.370Z,96881.19
2023-04-06T08:13:21.986Z,96879.28
2023-04-06T08:15:51.088Z,96886.50
2023-04-06T08:18:18.840Z,96874.25
2023-04-06T08:20:46.661Z,96875.13
2023-04-06T08:23:14.212Z,96880.38
2023-04-06T08:25:41.838Z,96880.41
2023-04-06T08:28:10.382Z,96884.00
2023-04-06T08:30:38.232Z,96881.88
2023-04-06T08:33:07.385Z,96880.25
2023-04-06T08:35:35.030Z,96880.19
2023-04-06T08:38:02.671Z,96874.44
2023-04-06T08:40:30.445Z,96870.88
2023-04-06T08:42:58.759Z,96884.00
2023-04-06T08:45:26.638Z,96869.03
2023-04-06T08:47:55.821Z,96878.63
2023-04-06T08:50:27.091Z,96873.06
2023-04-06T08:52:54.692Z,96873.41
2023-04-06T08:55:23.485Z,96875.00
2023-04-06T08:57:54.430Z,96867.03
2023-04-06T09:00:22.522Z,96865.41
2023-04-06T09:02:52.119Z,96864.41
2023-04-06T09:05:20.705Z,96864.66
2023-04-06T09:07:49.828Z,96857.94
2023-04-06T09:10:18.824Z,96855.72
2023-04-06T09:12:46.396Z,96853.84
2023-04-06T09:15:23.579Z,96854.56
2023-04-06T09:17:54.871Z,96859.00
2023-04-06T09:20:26.862Z,96851.88
2023-04-06T09:22:57.040Z,96858.25
2023-04-06T09:25:27.352Z,96858.69
2023-04-06T09:28:01.904Z,96856.91
2023-04-06T09:30:29.456Z,96857.47
2023-04-06T09:32:58.480Z,96864.00
2023-04-06T09:35:27.575Z,96853.16
2023-04-06T09:37:57.468Z,96860.56
2023-04-06T09:40:25.321Z,96858.06
2023-04-06T09:42:55.332Z,96848.44
2023-04-06T09:45:23.045Z,96854.38
2023-04-06T09:47:52.545Z,96856.38
2023-04-06T09:50:21.584Z,96843.78
2023-04-06T09:52:52.087Z,96848.78
2023-04-06T09:55:27.703Z,96845.34
2023-04-06T09:58:03.182Z,96838.38
2023-04-06T10:00:34.252Z,96839.00
2023-04-06T10:03:13.367Z,96836.56
2023-04-06T10:05:48.570Z,96841.75
2023-04-06T10:08:17.303Z,96835.75
2023-04-06T10:10:47.104Z,96830.84
2023-04-06T10:13:14.681Z,96832.25
2023-04-06T10:15:43.772Z,96829.72
2023-04-06T10:18:11.533Z,96836.72
2023-04-06T10:20:44.037Z,96836.03
2023-04-06T10:23:16.845Z,96837.00
2023-04-06T10:25:56.444Z,96831.56
2023-04-06T10:28:24.878Z,96831.22
2023-04-06T10:30:59.959Z,96840.72
2023-04-06T10:33:27.968Z,96831.88
2023-04-06T10:35:56.511Z,96833.91
2023-04-06T10:38:37.084Z,96840.03
2023-04-06T10:41:08.512Z,96825.63
2023-04-06T10:43:37.620Z,96822.66
2023-04-06T10:46:07.103Z,96832.91
2023-04-06T10:48:42.443Z,96826.59
2023-04-06T10:51:12.092Z,96819.94
2023-04-06T10:53:40.144Z,96821.09
2023-04-06T10:56:12.822Z,96818.28
2023-04-06T10:58:45.846Z,96814.38
2023-04-06T11:01:13.665Z,96811.63
2023-04-06T11:03:47.409Z,96818.03
2023-04-06T11:06:20.649Z,96813.53
2023-04-06T11:08:48.212Z,96816.16
2023-04-06T11:11:19.398Z,96811.56
2023-04-06T11:13:51.718Z,96813.66
2023-04-06T11:16:20.605Z,96815.78
2023-04-06T11:18:56.598Z,96810.81
2023-04-06T11:21:35.700Z,96805.34
2023-04-06T11:24:10.784Z,96802.88
2023-04-06T11:26:45.453Z,96794.63
2023-04-06T11:29:14.133Z,96796.16
2023-04-06T11:31:43.620Z,96797.31
2023-04-06T11:34:12.382Z,96792.72
2023-04-06T11:36:43.239Z,96795.56
2023-04-06T11:39:12.078Z,96787.19
2023-04-06T11:41:39.702Z,96779.13
2023-04-06T11:44:08.800Z,96783.16
2023-04-06T11:46:36.804Z,96784.41
2023-04-06T11:49:04.641Z,96783.22
2023-04-06T11:51:32.218Z,96777.16
2023-04-06T11:53:59.817Z,96777.47
2023-04-06T11:56:29.103Z,96772.72
2023-04-06T11:58:57.780Z,96773.88
2023-04-06T12:01:27.419Z,96771.25
2023-04-06T12:03:56.081Z,96779.72
2023-04-06T12:06:23.763Z,96776.41
2023-04-06T12:08:51.459Z,96775.66
2023-04-06T12:11:20.860Z,96777.78
2023-04-06T12:13:48.502Z,96770.16
2023-04-06T12:16:16.154Z,96766.97
2023-04-06T12:18:45.315Z,96768.22
2023-04-06T12:21:12.849Z,96764.78
2023-04-06T12:23:40.465Z,96757.09
2023-04-06T12:26:13.191Z,96757.25
2023-04-06T12:28:41.338Z,96757.25
2023-04-06T12:31:16.740Z,96754.50
2023-04-06T12:33:46.327Z,96756.53
2023-04-06T12:36:14.638Z,96756.72
2023-04-06T12:38:42.418Z,96741.94
2023-04-06T12:41:10.003Z,96743.78
2023-04-06T12:43:37.556Z,96743.19
2023-04-06T12:46:05.532Z,96735.72
2023-04-06T12:48:33.727Z,96738.34
2023-04-06T12:51:04.939Z,96740.34
2023-04-06T12:53:33.445Z,96732.25
2023-04-06T12:56:02.454Z,96733.09
2023-04-06T12:58:30.518Z,96736.75
2023-04-06T13:01:03.844Z,96744.44
2023-04-06T13:03:31.771Z,96731.13
2023-04-06T13:06:02.924Z,96734.38
2023-04-06T13:08:30.730Z,96730.34
2023-04-06T13:10:58.510Z,96725.94
2023-04-06T13:13:27.435Z,96733.41
2023-04-06T13:15:56.487Z,96726.94
2023-04-06T13:18:25.548Z,96718.63
2023-04-06T13:20:53.148Z,96720.38
2023-04-06T13:23:22.138Z,96719.75
2023-04-06T13:25:49.720Z,96709.66
2023-04-06T13:28:17.335Z,96706.88
2023-04-06T13:30:45.400Z,96710.72
2023-04-06T13:33:15.829Z,96714.25
2023-04-06T13:35:48.450Z,96716.69
2023-04-06T13:38:16.234Z,96703.13
2023-04-06T13:40:45.489Z,96708.16
2023-04-06T13:43:13.054Z,96708.16
2023-04-06T13:45:41.093Z,96705.97
2023-04-06T13:48:08.961Z,96701.31
2023-04-06T13:50:36.760Z,96699.28
2023-04-06T13:53:04.298Z,96699.09
2023-04-06T13:55:32.267Z,96697.44
2023-04-06T13:58:01.266Z,96700.09
2023-04-06T14:00:28.927Z,96694.44
2023-04-06T14:02:56.963Z,96693.00
2023-04-06T14:05:24.772Z,96691.78
2023-04-06T14:07:52.356Z,96679.53
2023-04-06T14:10:22.148Z,96687.41
2023-04-06T14:12:49.707Z,96683.16
2023-04-06T14:15:23.268Z,96691.22
2023-04-06T14:25:56.635Z,96676.00
2023-04-06T14:31:50.095Z,96678.03
2023-04-06T14:34:35.806Z,96684.72
2023-04-06T14:37:09.046Z,96674.41
2023-04-06T14:47:40.640Z,96672.59
2023-04-06T14:50:38.028Z,96667.78
2023-04-06T14:56:12.020Z,96664.72
2023-04-06T14:59:02.690Z,96664.72
2023-04-06T15:02:30.587Z,96671.59
2023-04-06T15:08:53.729Z,96672.41
2023-04-06T15:11:21.498Z,96658.09
2023-04-06T15:13:49.990Z,96667.97
2023-04-06T15:16:17.700Z,96663.75
2023-04-06T15:18:45.333Z,96657.28
2023-04-06T15:26:45.452Z,96654.06
2023-04-06T15:29:13.013Z,96657.06
2023-04-06T15:34:24.334Z,96646.19
2023-04-06T15:54:18.849Z,96649.78
2023-04-06T16:04:44.618Z,96655.00
2023-04-06T16:14:37.220Z,96652.13
2023-04-06T16:18:01.354Z,96651.31
2023-04-06T16:20:49.278Z,96650.91
2023-04-06T16:23:17.971Z,96645.03
2023-04-06T16:25:47.030Z,96647.25
2023-04-06T16:28:15.982Z,96654.88
2023-04-06T16:30:47.518Z,96657.69
2023-04-06T16:33:19.253Z,96654.84
2023-04-06T16:35:49.996Z,96656.03
2023-04-06T16:38:18.070Z,96659.03
2023-04-06T16:40:50.008Z,96656.00
2023-04-06T16:43:26.268Z,96665.06
2023-04-06T16:45:55.337Z,96653.56
2023-04-06T16:48:43.723Z,96655.94
2023-04-06T16:56:19.085Z,96651.47
2023-04-06T17:03:09.767Z,96655.69
2023-04-06T17:05:41.902Z,96656.25
2023-04-06T17:08:23.969Z,96657.66
2023-04-06T17:11:07.589Z,96658.00
2023-04-06T17:13:35.386Z,96659.44
2023-04-06T17:16:03.532Z,96654.38
2023-04-06T17:18:31.048Z,96657.38
2023-04-06T17:21:00.287Z,96654.97
2023-04-06T17:23:27.769Z,96653.31
2023-04-06T17:25:57.429Z,96654.34
2023-04-06T17:28:25.311Z,96650.09
2023-04-06T17:30:53.016Z,96649.69
2023-04-06T17:33:22.152Z,96652.47
2023-04-06T17:35:49.821Z,96652.88
2023-04-06T17:38:19.570Z,96658.47
2023-04-06T17:40:47.142Z,96658.88
2023-04-06T17:43:14.736Z,96651.03
2023-04-06T17:45:42.279Z,96656.63
2023-04-06T17:48:09.788Z,96661.22
2023-04-06T17:50:38.900Z,96666.84
2023-04-06T17:53:06.853Z,96666.84
2023-04-06T17:55:35.797Z,96669.84
2023-04-06T17:58:03.670Z,96672.22
2023-04-06T18:00:31.335Z,96671.81
2023-04-06T18:02:59.024Z,96668.34
2023-04-06T18:05:27.009Z,96671.97
2023-04-06T18:07:55.443Z,96674.34
2023-04-06T18:10:23.189Z,96677.09
2023-04-06T18:12:52.245Z,96683.44
2023-04-06T18:15:19.771Z,96675.72
2023-04-06T18:17:47.343Z,96678.63
2023-04-06T18:20:15.837Z,96686.78
2023-04-06T18:22:43.606Z,96684.28
2023-04-06T18:25:12.870Z,96692.41
2023-04-06T18:27:40.369Z,96689.09
2023-04-06T18:30:12.970Z,96699.66
2023-04-06T18:32:40.920Z,96704.97
2023-04-06T18:35:11.249Z,96701.47
2023-04-06T18:37:38.777Z,96700.59
2023-04-06T18:40:07.602Z,96696.91
2023-04-06T18:42:35.117Z,96695.19
2023-04-06T18:45:02.837Z,96692.31
2023-04-06T18:47:31.701Z,96689.19
2023-04-06T18:49:59.246Z,96689.09
2023-04-06T18:52:27.007Z,96691.25
2023-04-06T18:54:54.490Z,96695.56
2023-04-06T18:57:22.014Z,96698.69
2023-04-06T18:59:49.582Z,96699.22
2023-04-06T19:02:17.116Z,96698.16
2023-04-06T19:04:46.164Z,96703.25
2023-04-06T19:07:13.763Z,96703.56
2023-04-06T19:09:41.458Z,96705.06
2023-04-06T19:12:08.958Z,96704.88
2023-04-06T19:14:36.504Z,96710.09
2023-04-06T19:17:04.073Z,96705.88
2023-04-06T19:19:31.576Z,96712.69
2023-04-06T19:22:00.668Z,96716.72
2023-04-06T19:24:28.167Z,96721.16
2023-04-06T19:26:55.709Z,96716.94
2023-04-06T19:29:24.469Z,96729.63
2023-04-06T19:31:52.192Z,96725.16
2023-04-06T19:34:19.799Z,96729.44
2023-04-06T19:36:47.557Z,96729.50
2023-04-06T19:39:17.874Z,96725.63
2023-04-06T19:41:45.365Z,96730.72
2023-04-06T19:44:13.098Z,96726.22
2023-04-06T19:46:40.636Z,96728.34
2023-04-06T19:49:08.182Z,96735.25
2023-04-06T19:51:36.199Z,96741.13
2023-04-06T19:54:04.150Z,96732.41
2023-04-06T19:56:33.152Z,96739.28
2023-04-06T19:59:01.575Z,96731.50
2023-04-06T20:01:29.213Z,96733.19
2023-04-06T20:03:56.904Z,96739.88
2023-04-06T20:06:24.503Z,96738.75
2023-04-06T20:08:52.073Z,96735.50
2023-04-06T20:11:19.676Z,96730.16
2023-04-06T20:13:48.667Z,96735.44
2023-04-06T20:16:16.366Z,96741.16
2023-04-06T20:18:43.901Z,96735.78
2023-04-06T20:21:11.565Z,96738.88
2023-04-06T20:23:39.115Z,96741.84
2023-04-06T20:26:10.354Z,96741.53
2023-04-06T20:28:39.367Z,96737.81
2023-04-06T20:31:08.332Z,96738.31
2023-04-06T20:33:36.357Z,96735.41
2023-04-06T20:36:04.323Z,96729.72
2023-04-06T20:38:33.960Z,96740.91
2023-04-06T20:41:02.039Z,96745.16
2023-04-06T20:43:31.462Z,96751.31
2023-04-06T20:46:01.684Z,96754.41
2023-04-06T20:48:35.931Z,96752.13
2023-04-06T20:51:04.020Z,96746.25
2023-04-06T20:53:31.795Z,96748.69
2023-04-06T20:55:59.291Z,96750.16
2023-04-06T20:58:27.073Z,96750.81
2023-04-06T21:00:54.556Z,96750.34
2023-04-06T21:03:22.248Z,96741.91
2023-04-06T21:05:57.240Z,96748.06
2023-04-06T21:08:24.812Z,96746.63
2023-04-06T21:10:52.320Z,96750.38
2023-04-06T21:13:19.829Z,96738.53
2023-04-06T21:15:47.368Z,96742.41
2023-04-06T21:18:14.932Z,96733.47
2023-04-06T21:20:42.428Z,96735.78
2023-04-06T21:23:11.985Z,96729.59
2023-04-06T21:25:39.747Z,96733.16
2023-04-06T21:28:07.315Z,96731.03
2023-04-06T21:30:37.033Z,96733.78
2023-04-06T21:33:04.926Z,96731.84
2023-04-06T21:35:32.494Z,96729.25
2023-04-06T21:38:00.373Z,96724.88
2023-04-06T21:40:29.319Z,96725.03
2023-04-06T21:42:56.868Z,96722.09
2023-04-06T21:45:24.429Z,96721.78
2023-04-06T21:47:52.191Z,96720.69
2023-04-06T21:50:19.737Z,96723.44
2023-04-06T21:52:47.327Z,96718.25
2023-04-06T21:55:15.149Z,96729.44
2023-04-06T21:57:44.859Z,96728.94
2023-04-06T22:00:13.530Z,96726.69
2023-04-06T22:02:41.290Z,96726.34
2023-04-06T22:05:09.525Z,96723.44
2023-04-06T22:07:37.078Z,96723.59
2023-04-06T22:10:05.129Z,96721.78
2023-04-06T22:12:32.670Z,96714.81
2023-04-06T22:15:01.521Z,96714.50
2023-04-06T22:17:29.105Z,96710.44
2023-04-06T22:19:56.772Z,96708.16
2023-04-06T22:22:25.627Z,96715.63
2023-04-06T22:24:53.214Z,96703.28
2023-04-06T22:27:20.720Z,96709.28
2023-04-06T22:29:48.205Z,96713.84
2023-04-06T22:32:17.100Z,96709.13
2023-04-06T22:34:44.717Z,96701.66
2023-04-06T22:37:12.199Z,96702.50
2023-04-06T22:39:39.707Z,96693.84
2023-04-06T22:42:07.233Z,96696.66
2023-04-06T22:44:34.773Z,96703.59
2023-04-06T22:47:02.299Z,96697.44
2023-04-06T22:49:31.371Z,96693.06
2023-04-06T22:51:58.880Z,96695.34
2023-04-06T22:54:27.052Z,96691.91
2023-04-06T22:56:54.895Z,96697.09
2023-04-06T22:59:22.433Z,96688.66
2023-04-06T23:01:50.076Z,96694.69
2023-04-06T23:04:18.062Z,96697.28
2023-04-06T23:06:47.116Z,96699.06
2023-04-06T23:09:14.707Z,96700.00
2023-04-06T23:11:42.231Z,96703.09
2023-04-06T23:14:09.728Z,96695.47
2023-04-06T23:16:37.287Z,96696.59
2023-04-06T23:19:04.858Z,96690.44
2023-04-06T23:21:33.231Z,96689.94
2023-04-06T23:24:02.578Z,96693.69
2023-04-06T23:26:30.531Z,96694.84
2023-04-06T23:28:58.095Z,96686.22
2023-04-06T23:31:25.769Z,96689.94
2023-04-06T23:33:53.278Z,96682.13
2023-04-06T23:36:20.847Z,96684.69
2023-04-06T23:38:48.349Z,96697.03
2023-04-06T23:41:17.228Z,96693.28
2023-04-06T23:43:44.831Z,96688.88
2023-04-06T23:46:16.881Z,96686.56
2023-04-06T23:48:44.449Z,96688.22
2023-04-06T23:51:12.236Z,96683.81
2023-04-06T23:53:39.785Z,96680.06
2023-04-06T23:56:07.676Z,96682.66
2023-04-06T23:58:36.561Z,96686.56
